createdAt,value
2022-08-08T00:00:52.464Z,100046.53
2022-08-08T00:02:52.457Z,100043.09
2022-08-08T00:05:43.541Z,100037.81
2022-08-08T00:08:18.356Z,100047.53
2022-08-08T00:10:50.858Z,100044.16
2022-08-08T00:14:16.523Z,100040.72
2022-08-08T00:16:11.217Z,100033.69
2022-08-08T00:18:45.060Z,100031.28
2022-08-08T00:21:17.681Z,100034.84
2022-08-08T00:23:52.653Z,100033.13
2022-08-08T00:26:29.240Z,100030.47
2022-08-08T00:29:02.462Z,100034.94
2022-08-08T00:32:20.614Z,100028.56
2022-08-08T00:34:51.633Z,100030.41
2022-08-08T00:37:48.076Z,100037.41
2022-08-08T00:41:09.665Z,100040.25
2022-08-08T00:43:46.338Z,100022.78
2022-08-08T00:46:56.121Z,100033.59
2022-08-08T00:49:50.527Z,100035.78
2022-08-08T00:52:48.848Z,100036.78
2022-08-08T00:55:52.528Z,100030.91
2022-08-08T00:58:32.615Z,100031.25
2022-08-08T01:01:13.501Z,100037.38
2022-08-08T01:04:09.571Z,100039.91
2022-08-08T01:07:10.685Z,100033.59
2022-08-08T01:10:09.234Z,100039.66
2022-08-08T01:12:56.996Z,100037.19
2022-08-08T01:15:53.300Z,100039.91
2022-08-08T01:18:52.626Z,100034.78
2022-08-08T01:22:10.038Z,100028.59
2022-08-08T01:24:53.681Z,100029.78
2022-08-08T01:27:48.548Z,100022.72
2022-08-08T01:30:45.733Z,100022.69
2022-08-08T01:33:33.876Z,100022.63
2022-08-08T01:36:36.604Z,100024.59
2022-08-08T01:39:23.497Z,100023.03
2022-08-08T01:41:58.926Z,100014.25
2022-08-08T01:44:37.811Z,100021.44
2022-08-08T01:48:14.381Z,100016.00
2022-08-08T01:50:06.051Z,100012.38
2022-08-08T01:54:03.962Z,100015.97
2022-08-08T01:56:29.294Z,100017.16
2022-08-08T01:58:39.789Z,100018.94
2022-08-08T02:01:28.156Z,100022.59
2022-08-08T02:04:18.130Z,100023.41
2022-08-08T02:06:54.962Z,100028.81
2022-08-08T02:10:01.619Z,100032.28
2022-08-08T02:12:24.164Z,100025.59
2022-08-08T02:14:59.389Z,100030.78
2022-08-08T02:17:42.867Z,100027.19
2022-08-08T02:21:02.841Z,100036.25
2022-08-08T02:23:16.410Z,100039.00
2022-08-08T02:25:49.843Z,100026.00
2022-08-08T02:28:26.040Z,100037.56
2022-08-08T02:31:43.497Z,100031.22
2022-08-08T02:34:08.346Z,100028.59
2022-08-08T02:36:41.390Z,100020.59
2022-08-08T02:39:40.451Z,100033.72
2022-08-08T02:42:36.167Z,100027.84
2022-08-08T02:45:25.649Z,100027.97
2022-08-08T02:48:26.206Z,100028.19
2022-08-08T02:51:37.788Z,100026.53
2022-08-08T02:54:34.455Z,100032.84
2022-08-08T02:57:44.350Z,100028.41
2022-08-08T03:00:50.535Z,100024.84
2022-08-08T03:05:00.325Z,100031.94
2022-08-08T03:07:01.803Z,100025.91
2022-08-08T03:09:48.213Z,100027.75
2022-08-08T03:13:01.175Z,100029.53
2022-08-08T03:15:56.682Z,100018.16
2022-08-08T03:18:39.341Z,100025.97
2022-08-08T03:21:10.172Z,100034.66
2022-08-08T03:23:57.249Z,100038.03
2022-08-08T03:26:35.558Z,100039.81
2022-08-08T03:29:17.023Z,100047.81
2022-08-08T03:32:09.487Z,100046.22
2022-08-08T03:34:40.413Z,100050.38
2022-08-08T03:37:58.853Z,100049.69
2022-08-08T03:40:04.173Z,100056.88
2022-08-08T03:42:34.343Z,100041.19
2022-08-08T03:46:06.250Z,100044.84
2022-08-08T03:47:56.030Z,100052.59
2022-08-08T03:50:26.038Z,100049.19
2022-08-08T03:52:57.581Z,100049.88
2022-08-08T03:55:57.259Z,100049.13
2022-08-08T03:58:34.251Z,100057.78
2022-08-08T04:01:23.019Z,100057.63
2022-08-08T04:03:59.851Z,100054.16
2022-08-08T04:06:36.487Z,100063.16
2022-08-08T04:09:10.558Z,100059.75
2022-08-08T04:11:48.437Z,100057.09
2022-08-08T04:14:34.858Z,100062.25
2022-08-08T04:17:22.362Z,100063.16
2022-08-08T04:19:56.413Z,100058.81
2022-08-08T04:22:29.652Z,100060.69
2022-08-08T04:24:59.120Z,100064.31
2022-08-08T04:28:03.677Z,100061.78
2022-08-08T04:30:19.657Z,100077.22
2022-08-08T04:32:52.210Z,100075.47
2022-08-08T04:35:24.214Z,100077.06
2022-08-08T04:37:54.173Z,100077.13
2022-08-08T04:40:27.325Z,100083.16
2022-08-08T04:43:01.079Z,100089.22
2022-08-08T04:45:50.890Z,100088.31
2022-08-08T04:48:22.117Z,100091.78
2022-08-08T04:50:51.744Z,100090.81
2022-08-08T04:54:26.862Z,100081.78
2022-08-08T04:56:16.858Z,100087.91
2022-08-08T04:58:48.423Z,100088.69
2022-08-08T05:01:20.337Z,100091.13
2022-08-08T05:04:09.745Z,100091.00
2022-08-08T05:06:42.990Z,100082.75
2022-08-08T05:09:12.790Z,100096.72
2022-08-08T05:11:47.718Z,100085.19
2022-08-08T05:14:29.273Z,100080.38
2022-08-08T05:17:01.894Z,100089.63
2022-08-08T05:20:10.984Z,100082.72
2022-08-08T05:22:29.594Z,100083.00
2022-08-08T05:24:59.502Z,100075.84
2022-08-08T05:27:33.297Z,100078.59
2022-08-08T05:30:04.764Z,100075.81
2022-08-08T05:32:42.576Z,100081.72
2022-08-08T05:35:14.721Z,100086.66
2022-08-08T05:37:53.051Z,100087.38
2022-08-08T05:40:30.251Z,100089.88
2022-08-08T05:43:38.824Z,100092.19
2022-08-08T05:46:03.705Z,100091.78
2022-08-08T05:48:38.639Z,100095.91
2022-08-08T05:51:13.513Z,100095.44
2022-08-08T05:54:25.954Z,100093.91
2022-08-08T05:56:38.697Z,100097.78
2022-08-08T05:59:14.904Z,100097.09
2022-08-08T06:02:05.195Z,100099.47
2022-08-08T06:04:35.475Z,100088.88
2022-08-08T06:07:09.861Z,100096.66
2022-08-08T06:10:00.665Z,100090.06
2022-08-08T06:12:30.129Z,100092.59
2022-08-08T06:15:03.385Z,100092.66
2022-08-08T06:17:51.240Z,100099.84
2022-08-08T06:20:26.558Z,100086.75
2022-08-08T06:22:57.773Z,100089.28
2022-08-08T06:26:34.594Z,100095.75
2022-08-08T06:28:29.435Z,100091.84
2022-08-08T06:31:00.155Z,100097.44
2022-08-08T06:34:25.971Z,100097.88
2022-08-08T06:36:31.562Z,100098.50
2022-08-08T06:39:06.863Z,100100.31
2022-08-08T06:41:42.027Z,100103.31
2022-08-08T06:44:24.978Z,100105.44
2022-08-08T06:46:57.883Z,100105.31
2022-08-08T06:49:54.892Z,100112.81
2022-08-08T06:52:18.099Z,100110.41
2022-08-08T06:54:48.793Z,100119.22
2022-08-08T06:57:18.757Z,100110.34
2022-08-08T07:00:10.914Z,100110.47
2022-08-08T07:02:36.926Z,100111.81
2022-08-08T07:05:20.501Z,100106.38
2022-08-08T07:07:56.927Z,100123.44
2022-08-08T07:10:34.132Z,100110.25
2022-08-08T07:13:07.152Z,100110.56
2022-08-08T07:16:05.078Z,100114.31
2022-08-08T07:18:43.626Z,100125.25
2022-08-08T07:21:20.401Z,100124.66
2022-08-08T07:24:03.073Z,100123.50
2022-08-08T07:26:39.156Z,100133.59
2022-08-08T07:29:20.308Z,100131.88
2022-08-08T07:31:59.421Z,100125.25
2022-08-08T07:34:32.435Z,100125.66
2022-08-08T07:37:12.041Z,100128.88
2022-08-08T07:39:55.827Z,100134.53
2022-08-08T07:42:32.843Z,100137.56
2022-08-08T07:45:03.770Z,100135.34
2022-08-08T07:47:39.077Z,100146.69
2022-08-08T07:50:11.178Z,100142.75
2022-08-08T07:52:44.364Z,100146.06
2022-08-08T07:55:20.092Z,100151.91
2022-08-08T07:58:13.952Z,100160.09
2022-08-08T08:00:45.169Z,100161.13
2022-08-08T08:03:23.720Z,100162.69
2022-08-08T08:05:55.367Z,100158.69
2022-08-08T08:08:34.561Z,100153.03
2022-08-08T08:11:05.412Z,100158.66
2022-08-08T08:14:06.111Z,100155.56
2022-08-08T08:16:25.767Z,100153.31
2022-08-08T08:18:59.249Z,100155.19
2022-08-08T08:21:52.810Z,100160.94
2022-08-08T08:24:47.376Z,100159.88
2022-08-08T08:27:19.946Z,100167.34
2022-08-08T08:29:52.009Z,100166.63
2022-08-08T08:32:24.134Z,100171.41
2022-08-08T08:35:08.398Z,100163.94
2022-08-08T08:37:59.264Z,100171.19
2022-08-08T08:40:30.515Z,100167.50
2022-08-08T08:43:01.178Z,100160.66
2022-08-08T08:45:29.952Z,100167.63
2022-08-08T08:48:02.883Z,100167.47
2022-08-08T08:50:40.847Z,100170.78
2022-08-08T08:53:54.382Z,100183.34
2022-08-08T08:56:11.820Z,100179.16
2022-08-08T08:58:46.917Z,100182.34
2022-08-08T09:01:34.140Z,100170.97
2022-08-08T09:04:10.162Z,100171.81
2022-08-08T09:06:58.573Z,100176.25
2022-08-08T09:09:39.389Z,100168.94
2022-08-08T09:12:20.261Z,100173.19
2022-08-08T09:14:50.387Z,100173.34
2022-08-08T09:17:40.749Z,100176.78
2022-08-08T09:21:57.181Z,100180.97
2022-08-08T09:23:05.263Z,100172.72
2022-08-08T09:25:54.758Z,100164.66
2022-08-08T09:28:38.693Z,100169.06
2022-08-08T09:31:17.026Z,100171.84
2022-08-08T09:34:15.885Z,100173.13
2022-08-08T09:36:51.723Z,100164.81
2022-08-08T09:39:42.703Z,100170.75
2022-08-08T09:42:19.913Z,100168.94
2022-08-08T09:45:15.806Z,100162.88
2022-08-08T09:48:04.818Z,100164.22
2022-08-08T09:50:44.025Z,100164.47
2022-08-08T09:53:24.728Z,100163.22
2022-08-08T09:56:06.709Z,100168.84
2022-08-08T09:58:40.302Z,100165.22
2022-08-08T10:01:15.392Z,100160.13
2022-08-08T10:04:04.767Z,100160.66
2022-08-08T10:06:35.688Z,100160.16
2022-08-08T10:09:08.634Z,100156.84
2022-08-08T10:12:25.993Z,100160.09
2022-08-08T10:14:35.393Z,100161.34
2022-08-08T10:17:38.725Z,100156.41
2022-08-08T10:20:00.179Z,100165.03
2022-08-08T10:22:30.400Z,100145.31
2022-08-08T10:25:03.482Z,100146.06
2022-08-08T10:27:40.971Z,100141.69
2022-08-08T10:30:16.750Z,100143.41
2022-08-08T10:33:01.135Z,100138.44
2022-08-08T10:36:09.406Z,100137.84
2022-08-08T10:38:20.905Z,100136.50
2022-08-08T10:40:53.294Z,100126.97
2022-08-08T10:43:24.706Z,100131.13
2022-08-08T10:46:05.514Z,100139.50
2022-08-08T10:48:59.001Z,100142.00
2022-08-08T11:38:35.601Z,100117.22
2022-08-08T12:02:51.074Z,100101.53
2022-08-08T12:05:22.852Z,100106.72
2022-08-08T12:07:56.135Z,100106.09
2022-08-08T12:10:26.211Z,100090.22
2022-08-08T12:13:02.444Z,100104.63
2022-08-08T12:15:40.031Z,100092.56
2022-08-08T12:18:17.923Z,100093.25
2022-08-08T12:20:53.236Z,100090.34
2022-08-08T12:23:40.374Z,100088.03
2022-08-08T12:26:17.355Z,100102.78
2022-08-08T12:28:56.965Z,100089.97
2022-08-08T12:31:39.492Z,100083.22
2022-08-08T12:34:36.498Z,100095.59
2022-08-08T12:37:08.340Z,100084.88
2022-08-08T12:39:59.963Z,100076.06
2022-08-08T12:42:33.105Z,100070.56
2022-08-08T12:45:14.455Z,100072.78
2022-08-08T12:48:10.409Z,100072.91
2022-08-08T12:50:51.393Z,100076.25
2022-08-08T12:53:24.880Z,100077.34
2022-08-08T12:56:19.133Z,100077.81
2022-08-08T12:58:51.796Z,100068.63
2022-08-08T13:01:24.686Z,100072.97
2022-08-08T13:04:18.171Z,100071.75
2022-08-08T13:07:00.862Z,100069.72
2022-08-08T13:09:33.611Z,100063.91
2022-08-08T13:12:29.111Z,100074.72
2022-08-08T13:14:58.690Z,100064.97
2022-08-08T13:18:07.959Z,100055.00
2022-08-08T13:20:18.451Z,100059.19
2022-08-08T13:22:48.521Z,100068.22
2022-08-08T13:25:17.299Z,100061.13
2022-08-08T13:27:45.663Z,100065.69
2022-08-08T13:30:21.204Z,100067.94
2022-08-08T13:32:56.292Z,100070.59
2022-08-08T13:35:38.359Z,100065.03
2022-08-08T13:38:14.246Z,100057.06
2022-08-08T13:40:44.726Z,100053.28
2022-08-08T13:43:13.985Z,100057.84
2022-08-08T13:45:47.571Z,100058.31
2022-08-08T13:48:17.037Z,100059.94
2022-08-08T13:50:52.530Z,100060.03
2022-08-08T13:53:33.964Z,100064.72
2022-08-08T13:56:10.883Z,100060.56
2022-08-08T13:58:57.450Z,100062.00
2022-08-08T14:01:41.882Z,100050.16
2022-08-08T14:04:21.609Z,100050.69
2022-08-08T14:06:50.232Z,100054.50
2022-08-08T14:09:29.734Z,100050.44
2022-08-08T14:11:58.947Z,100051.56
2022-08-08T14:14:41.149Z,100055.81
2022-08-08T14:17:22.060Z,100058.47
2022-08-08T14:19:58.179Z,100055.81
2022-08-08T14:22:38.024Z,100053.13
2022-08-08T14:25:15.237Z,100055.75
2022-08-08T14:27:55.813Z,100060.09
2022-08-08T14:30:34.007Z,100057.38
2022-08-08T14:33:02.697Z,100056.56
2022-08-08T14:35:41.738Z,100047.28
2022-08-08T14:38:33.572Z,100061.22
2022-08-08T14:41:10.654Z,100058.13
2022-08-08T14:44:10.436Z,100051.38
2022-08-08T14:46:35.210Z,100054.69
2022-08-08T14:49:09.571Z,100049.69
2022-08-08T14:51:53.687Z,100044.88
2022-08-08T14:54:29.381Z,100057.47
2022-08-08T14:57:04.156Z,100043.41
2022-08-08T14:59:45.810Z,100053.34
2022-08-08T15:02:23.067Z,100050.34
2022-08-08T15:04:54.458Z,100055.38
2022-08-08T15:07:37.004Z,100051.66
2022-08-08T15:10:09.581Z,100049.97
2022-08-08T15:12:40.231Z,100047.63
2022-08-08T15:15:09.675Z,100049.19
2022-08-08T15:17:39.598Z,100054.81
2022-08-08T15:20:13.883Z,100050.69
2022-08-08T15:22:44.685Z,100049.09
2022-08-08T15:25:17.356Z,100050.34
2022-08-08T15:28:04.345Z,100051.81
2022-08-08T15:30:39.364Z,100051.34
2022-08-08T15:33:10.251Z,100053.94
2022-08-08T15:35:49.036Z,100054.78
2022-08-08T15:38:17.781Z,100044.47
2022-08-08T15:40:47.527Z,100049.41
2022-08-08T15:43:35.179Z,100040.09
2022-08-08T15:46:04.873Z,100043.69
2022-08-08T15:48:33.370Z,100043.34
2022-08-08T15:51:07.053Z,100039.28
2022-08-08T15:53:49.376Z,100040.63
2022-08-08T15:56:20.261Z,100033.25
2022-08-08T15:58:50.466Z,100038.66
2022-08-08T16:01:20.879Z,100034.84
2022-08-08T16:03:51.715Z,100029.31
2022-08-08T16:06:28.947Z,100037.06
2022-08-08T16:13:00.142Z,100027.75
2022-08-08T16:13:13.952Z,100031.78
2022-08-08T16:14:38.185Z,100020.38
2022-08-08T16:17:06.567Z,100035.13
2022-08-08T16:19:57.227Z,100040.38
2022-08-08T16:22:38.890Z,100032.66
2022-08-08T16:25:10.855Z,100033.09
2022-08-08T16:27:39.258Z,100032.25
2022-08-08T16:30:14.452Z,100025.47
2022-08-08T16:32:48.588Z,100020.69
2022-08-08T16:35:18.928Z,100033.44
2022-08-08T16:37:52.036Z,100025.19
2022-08-08T16:40:20.491Z,100024.59
2022-08-08T16:42:54.129Z,100025.81
2022-08-08T16:46:36.126Z,100029.22
2022-08-08T16:48:13.597Z,100023.31
2022-08-08T16:50:42.810Z,100027.22
2022-08-08T16:55:05.575Z,100026.31
2022-08-08T16:56:02.340Z,100034.78
2022-08-08T16:58:35.672Z,100032.53
2022-08-08T17:01:06.370Z,100034.28
2022-08-08T17:03:59.805Z,100026.81
2022-08-08T17:06:39.544Z,100034.38
2022-08-08T17:09:14.704Z,100041.25
2022-08-08T17:11:49.273Z,100038.38
2022-08-08T17:14:27.423Z,100034.66
2022-08-08T17:17:04.713Z,100032.72
2022-08-08T17:19:41.005Z,100028.72
2022-08-08T17:22:10.340Z,100036.19
2022-08-08T17:24:39.302Z,100040.84
2022-08-08T17:27:07.861Z,100040.19
2022-08-08T17:29:43.881Z,100045.28
2022-08-08T17:32:28.975Z,100049.81
2022-08-08T17:35:54.289Z,100053.94
2022-08-08T17:38:01.374Z,100055.53
2022-08-08T17:40:32.754Z,100058.47
2022-08-08T17:43:01.188Z,100050.06
2022-08-08T17:45:29.498Z,100055.53
2022-08-08T17:48:02.690Z,100061.25
2022-08-08T17:50:31.828Z,100059.66
2022-08-08T17:53:00.936Z,100060.09
2022-08-08T17:56:05.525Z,100058.81
2022-08-08T17:58:18.522Z,100061.72
2022-08-08T18:00:57.355Z,100061.16
2022-08-08T18:03:27.266Z,100069.66
2022-08-08T18:05:55.726Z,100066.25
2022-08-08T18:08:41.265Z,100068.03
2022-08-08T18:11:15.050Z,100062.53
2022-08-08T18:13:45.237Z,100070.72
2022-08-08T18:16:20.335Z,100065.34
2022-08-08T18:18:56.097Z,100072.31
2022-08-08T18:22:00.403Z,100070.97
2022-08-08T18:24:18.993Z,100081.72
2022-08-08T18:26:54.772Z,100079.53
2022-08-08T18:29:29.943Z,100076.78
2022-08-08T18:32:03.676Z,100079.78
2022-08-08T18:34:34.205Z,100073.88
2022-08-08T18:37:06.458Z,100075.13
2022-08-08T18:39:37.225Z,100077.16
2022-08-08T18:42:13.041Z,100085.81
2022-08-08T18:44:54.767Z,100087.22
2022-08-08T18:47:25.291Z,100091.28
2022-08-08T18:49:58.723Z,100098.88
2022-08-08T18:52:29.996Z,100101.94
2022-08-08T18:54:59.131Z,100102.25
2022-08-08T18:57:31.756Z,100104.75
2022-08-08T19:00:09.385Z,100116.56
2022-08-08T19:02:48.439Z,100122.50
2022-08-08T19:05:34.633Z,100126.16
2022-08-08T19:08:10.115Z,100120.66
2022-08-08T19:10:52.822Z,100124.44
2022-08-08T19:13:24.222Z,100127.09
2022-08-08T19:15:55.899Z,100134.41
2022-08-08T19:18:33.503Z,100135.81
2022-08-08T19:21:29.483Z,100141.84
2022-08-08T19:23:59.565Z,100135.56
2022-08-08T19:26:30.816Z,100153.56
2022-08-08T19:28:59.909Z,100156.19
2022-08-08T19:31:31.633Z,100156.19
2022-08-08T19:34:36.253Z,100150.06
2022-08-08T19:36:58.498Z,100157.69
2022-08-08T19:39:30.922Z,100152.75
2022-08-08T19:42:05.356Z,100167.09
2022-08-08T19:44:45.555Z,100158.41
2022-08-08T19:47:15.019Z,100164.75
2022-08-08T19:50:00.623Z,100168.34
2022-08-08T19:52:36.971Z,100163.69
2022-08-08T19:55:08.914Z,100173.91
2022-08-08T19:57:37.938Z,100173.81
2022-08-08T20:00:11.345Z,100177.09
2022-08-08T20:02:56.990Z,100184.16
2022-08-08T20:06:14.255Z,100182.72
2022-08-08T20:08:29.688Z,100182.88
2022-08-08T20:11:00.567Z,100187.97
2022-08-08T20:14:32.643Z,100180.97
2022-08-08T20:16:18.044Z,100186.31
2022-08-08T20:18:52.965Z,100176.72
2022-08-08T20:21:25.825Z,100183.16
2022-08-08T20:23:58.454Z,100177.34
2022-08-08T20:26:30.004Z,100183.03
2022-08-08T20:29:00.172Z,100179.38
2022-08-08T20:32:07.061Z,100180.94
2022-08-08T20:34:28.703Z,100181.81
2022-08-08T20:36:59.678Z,100182.31
2022-08-08T20:39:39.467Z,100185.06
2022-08-08T20:42:09.994Z,100188.84
2022-08-08T20:44:38.729Z,100193.91
2022-08-08T20:47:22.820Z,100191.34
2022-08-08T20:49:57.628Z,100193.31
2022-08-08T20:52:27.554Z,100199.53
2022-08-08T20:54:57.307Z,100195.13
2022-08-08T20:57:27.091Z,100199.16
2022-08-08T20:59:56.416Z,100197.41
2022-08-08T21:02:26.133Z,100194.56
2022-08-08T21:04:57.379Z,100199.38
2022-08-08T21:07:47.150Z,100205.41
2022-08-08T21:10:17.857Z,100208.56
2022-08-08T21:12:52.891Z,100204.00
2022-08-08T21:16:05.373Z,100202.06
2022-08-08T21:18:11.907Z,100204.97
2022-08-08T21:20:41.932Z,100201.81
2022-08-08T21:23:18.081Z,100207.06
2022-08-08T21:25:53.245Z,100207.75
2022-08-08T21:28:35.850Z,100203.59
2022-08-08T21:31:21.723Z,100205.88
2022-08-08T21:33:51.882Z,100200.41
2022-08-08T21:36:21.715Z,100202.53
2022-08-08T21:38:57.591Z,100207.13
2022-08-08T21:41:28.857Z,100198.25
2022-08-08T21:44:11.669Z,100199.06
2022-08-08T21:48:03.732Z,100204.53
2022-08-08T21:49:31.469Z,100199.19
2022-08-08T21:54:32.947Z,100207.03
2022-08-08T21:54:52.598Z,100195.78
2022-08-08T21:57:42.623Z,100200.50
2022-08-08T22:00:26.039Z,100209.81
2022-08-08T22:02:54.720Z,100211.25
2022-08-08T22:05:23.477Z,100210.84
2022-08-08T22:07:51.817Z,100208.28
2022-08-08T22:10:32.144Z,100211.13
2022-08-08T22:13:17.705Z,100211.13
2022-08-08T22:15:59.268Z,100213.31
2022-08-08T22:18:30.157Z,100215.28
2022-08-08T22:21:01.518Z,100222.44
2022-08-08T22:23:41.140Z,100225.38
2022-08-08T22:26:29.275Z,100221.34
2022-08-08T22:29:13.855Z,100229.28
2022-08-08T22:31:58.800Z,100231.97
2022-08-08T22:34:32.086Z,100235.69
2022-08-08T22:37:00.539Z,100234.44
2022-08-08T22:39:45.708Z,100241.44
2022-08-08T22:42:27.037Z,100234.19
2022-08-08T22:45:01.083Z,100229.97
2022-08-08T22:47:34.529Z,100234.66
2022-08-08T22:50:21.724Z,100233.22
2022-08-08T22:54:19.570Z,100229.19
2022-08-08T22:55:58.785Z,100223.31
2022-08-08T22:58:32.745Z,100226.41
2022-08-08T23:01:26.891Z,100227.41
2022-08-08T23:03:53.554Z,100217.56
2022-08-08T23:06:24.188Z,100221.97
2022-08-08T23:08:55.084Z,100223.84
2022-08-08T23:11:31.026Z,100220.97
2022-08-08T23:14:13.012Z,100219.84
2022-08-08T23:16:44.018Z,100223.69
2022-08-08T23:19:15.575Z,100218.38
2022-08-08T23:21:45.716Z,100224.66
2022-08-08T23:24:22.470Z,100221.28
2022-08-08T23:26:55.532Z,100211.75
2022-08-08T23:29:25.429Z,100217.63
2022-08-08T23:31:55.295Z,100219.78
2022-08-08T23:34:23.771Z,100216.22
2022-08-08T23:36:57.984Z,100217.41
2022-08-08T23:39:32.159Z,100223.72
2022-08-08T23:42:09.814Z,100219.59
2022-08-08T23:44:38.552Z,100230.34
2022-08-08T23:48:59.926Z,100229.44
2022-08-08T23:50:02.996Z,100225.88
2022-08-08T23:52:34.306Z,100225.16
2022-08-08T23:55:14.354Z,100226.06
2022-08-08T23:57:52.925Z,100228.34
